Lakeview AWS, OR

10:47 PM PST on December 11, 2017 (GMT -0800)
Lake County

Weather History for KLKV - July, 2013

Change the Weather History Date:

Monday, July 15, 2013

  Actual Average Record
Temperature  
Mean Temperature 68 °F -  
Max Temperature 91 °F 84 °F 96 °F (1985)
Min Temperature 46 °F 51 °F 34 °F (1946)
Cooling Degree Days 4    
Growing Degree Days 18 (Base 50)    
Moisture  
Dew Point 36 °F    
Average Humidity 36    
Maximum Humidity 71    
Minimum Humidity 13    
Precipitation  
Precipitation 0.00 in - - ()
Sea Level Pressure  
Sea Level Pressure 30.03 in    
Wind  
Wind Speed 6 mph (NW)    
Max Wind Speed 13 mph    
Max Gust Speed 21 mph    
Visibility 10 miles    
Events      
Averages and records for this station are not official NWS values.
T = Trace of Precipitation, MM = Missing Value Source: NWS Daily Summary

Daily Weather History Graph

Daily Weather History Graph

Search for Another Location

Airport or City:

Trip Planner

Search our weather history database for the weather conditions in past years. The results will help you decide how hot, cold, wet, or windy it might be!

Date:

Astronomy

Jul. 15, 2013 Rise Set
Actual Time 5:39 AM PDT 8:35 PM PDT
Civil Twilight 5:05 AM PDT 9:09 PM PDT
Nautical Twilight 4:23 AM PDT 9:51 PM PDT
Astronomical Twilight 3:33 AM PDT 10:40 PM PDT
Moon 1:13 PM PDT (7/15) No Moon Set
Length of Visible Light 16h 03m
Length of Day
14h 56m
Waxing Crescent, 46% of the Moon is Illuminated
Jul 15
Waxing Crescent
Jul 15
First Quarter
Jul 22
Full
Jul 29
Last Quarter
Aug 6
New

Hourly Weather History & Observations

Time (PDT) Temp. Windchill Dew Point Humidity Pressure Visibility Wind Dir Wind Speed Gust Speed Precip Events Conditions
12:15 AM 48.2 °F - 30.2 °F 50% 30.12 in 10.0 mi NNW 9.2 mph - N/A   Clear
12:35 AM 48.2 °F - 30.2 °F 50% 30.12 in 10.0 mi NNW 6.9 mph - N/A   Clear
12:55 AM 48.2 °F - 30.2 °F 50% 30.12 in 10.0 mi NNW 3.5 mph - N/A   Clear
1:15 AM 48.2 °F - 30.2 °F 50% 30.12 in 10.0 mi NNW 8.1 mph - N/A   Clear
1:35 AM 48.2 °F - 30.2 °F 50% 30.12 in 10.0 mi NNW 6.9 mph - N/A   Clear
1:55 AM 50.0 °F - 33.8 °F 54% 30.12 in 10.0 mi NW 8.1 mph - N/A   Clear
2:15 AM 50.0 °F - 33.8 °F 54% 30.11 in 10.0 mi NNW 8.1 mph - N/A   Clear
2:35 AM 50.0 °F - 35.6 °F 58% 30.11 in 10.0 mi NNW 9.2 mph - N/A   Clear
2:55 AM 50.0 °F - 37.4 °F 62% 30.11 in 10.0 mi NW 9.2 mph - N/A   Clear
3:15 AM 51.8 °F - 37.4 °F 58% 30.11 in 10.0 mi NW 8.1 mph - N/A   Clear
3:35 AM 51.8 °F - 37.4 °F 58% 30.10 in 10.0 mi NNW 6.9 mph - N/A   Clear
3:55 AM 50.0 °F - 37.4 °F 62% 30.10 in 10.0 mi North 6.9 mph - N/A   Clear
4:15 AM 48.2 °F - 37.4 °F 66% 30.09 in 10.0 mi North 4.6 mph - N/A   Clear
4:35 AM 48.2 °F - 37.4 °F 66% 30.09 in 10.0 mi NNW 6.9 mph - N/A   Clear
4:55 AM 48.2 °F - 37.4 °F 66% 30.09 in 10.0 mi North 3.5 mph - N/A   Clear
5:15 AM 48.2 °F - 37.4 °F 66% 30.09 in 10.0 mi NNE 6.9 mph - N/A   Clear
5:35 AM 48.2 °F - 37.4 °F 66% 30.09 in 10.0 mi North 6.9 mph - N/A   Clear
5:55 AM 46.4 °F 42.4 °F 37.4 °F 71% 30.09 in 10.0 mi North 8.1 mph - N/A   Clear
6:15 AM 46.4 °F 44.3 °F 37.4 °F 71% 30.10 in 10.0 mi North 4.6 mph - N/A   Clear
6:35 AM 48.2 °F - 37.4 °F 66% 30.09 in 10.0 mi North 4.6 mph - N/A   Clear
6:55 AM 53.6 °F - 39.2 °F 58% 30.10 in 10.0 mi NNW 3.5 mph - N/A   Clear
7:15 AM 57.2 °F - 39.2 °F 51% 30.10 in 10.0 mi Calm Calm - N/A   Clear
7:35 AM 59.0 °F - 41.0 °F 51% 30.10 in 10.0 mi Calm Calm - N/A   Clear
7:55 AM 60.8 °F - 37.4 °F 42% 30.09 in 10.0 mi Calm Calm - N/A   Clear
8:15 AM 62.6 °F - 37.4 °F 39% 30.09 in 10.0 mi Calm Calm - N/A   Clear
8:35 AM 68.0 °F - 37.4 °F 33% 30.09 in 10.0 mi Calm Calm - N/A   Clear
8:55 AM 68.0 °F - 39.2 °F 35% 30.09 in 10.0 mi ENE 3.5 mph - N/A   Clear
9:15 AM 69.8 °F - 41.0 °F 35% 30.08 in 10.0 mi ENE 3.5 mph - N/A   Clear
9:35 AM 71.6 °F - 42.8 °F 35% 30.08 in 10.0 mi Calm Calm - N/A   Clear
9:55 AM 73.4 °F - 41.0 °F 31% - 10.0 mi NE 3.5 mph - N/A   Clear
10:15 AM 75.2 °F - 42.8 °F 31% 30.07 in 10.0 mi ESE 3.5 mph - N/A   Clear
10:35 AM 77.0 °F - 39.2 °F 26% 30.07 in 10.0 mi ENE 3.5 mph - N/A   Clear
10:55 AM 78.8 °F - 42.8 °F 28% 30.06 in 10.0 mi SE 4.6 mph - N/A   Clear
11:15 AM 80.6 °F - 37.4 °F 21% 30.06 in 10.0 mi East 5.8 mph - N/A   Partly Cloudy
11:35 AM 80.6 °F - 35.6 °F 20% 30.05 in 10.0 mi Calm Calm - N/A   Partly Cloudy
11:55 AM 80.6 °F - 35.6 °F 20% 30.05 in 10.0 mi NNE 3.5 mph - N/A   Clear
12:15 PM 82.4 °F - 33.8 °F 17% 30.04 in 10.0 mi Calm Calm - N/A   Clear
12:35 PM 84.2 °F - 33.8 °F 16% 30.03 in 10.0 mi Calm Calm - N/A   Clear
12:55 PM 84.2 °F - 33.8 °F 16% 30.03 in 10.0 mi ESE 3.5 mph - N/A   Clear
1:15 PM 86.0 °F - 33.8 °F 15% 30.02 in 10.0 mi SSE 8.1 mph - N/A   Clear
1:35 PM 84.2 °F - 30.2 °F 14% 30.01 in 10.0 mi South 3.5 mph - N/A   Clear
1:55 PM 87.8 °F - 32.0 °F 14% 30.00 in 10.0 mi SE 4.6 mph - N/A   Clear
2:15 PM 87.8 °F - 33.8 °F 15% 29.99 in 10.0 mi SE 6.9 mph - N/A   Clear
2:35 PM 89.6 °F - 33.8 °F 14% 29.99 in 10.0 mi Calm Calm - N/A   Clear
2:55 PM 91.4 °F - 35.6 °F 14% 29.98 in 10.0 mi SW 9.2 mph - N/A   Clear
3:15 PM 89.6 °F - 33.8 °F 14% - 10.0 mi SSE 8.1 mph - N/A   Clear
3:35 PM 89.6 °F - 32.0 °F 13% 29.96 in 10.0 mi SW 9.2 mph - N/A   Clear
3:55 PM 89.6 °F - 32.0 °F 13% - 10.0 mi SW 5.8 mph - N/A   Clear
4:15 PM 91.4 °F - 33.8 °F 13% - 10.0 mi Calm Calm - N/A   Clear
4:35 PM 91.4 °F - 33.8 °F 13% - 10.0 mi South 5.8 mph - N/A   Clear
4:55 PM 89.6 °F - 32.0 °F 13% 29.94 in 10.0 mi WSW 5.8 mph - N/A   Clear
5:15 PM 91.4 °F - 33.8 °F 13% 29.93 in 10.0 mi WNW 6.9 mph - N/A   Clear
5:35 PM 91.4 °F - 33.8 °F 13% 29.92 in 10.0 mi WSW 9.2 mph 20.7 mph N/A   Clear
5:55 PM 87.8 °F - 30.2 °F 13% 29.92 in 10.0 mi SSW 4.6 mph - N/A   Clear
6:15 PM 89.6 °F - 33.8 °F 14% 29.92 in 10.0 mi WSW 8.1 mph - N/A   Clear
6:35 PM 89.6 °F - 35.6 °F 15% 29.91 in 10.0 mi West 5.8 mph - N/A   Clear
6:55 PM 89.6 °F - 35.6 °F 15% 29.91 in 10.0 mi West 4.6 mph - N/A   Clear
7:15 PM 86.0 °F - 39.2 °F 19% 29.91 in 10.0 mi West 12.7 mph - N/A   Clear
7:35 PM 84.2 °F - 37.4 °F 19% 29.92 in 10.0 mi West 9.2 mph - N/A   Clear
7:55 PM 82.4 °F - 39.2 °F 21% 29.92 in 10.0 mi West 8.1 mph - N/A   Clear
8:15 PM 78.8 °F - 39.2 °F 24% 29.93 in 10.0 mi West 9.2 mph - N/A   Clear
8:35 PM 75.2 °F - 37.4 °F 25% 29.93 in 10.0 mi West 8.1 mph - N/A   Clear
8:55 PM 71.6 °F - 39.2 °F 31% 29.93 in 10.0 mi West 4.6 mph - N/A   Clear
9:15 PM 64.4 °F - 42.8 °F 45% 29.94 in 10.0 mi NNE 6.9 mph - N/A   Clear
9:35 PM 64.4 °F - 42.8 °F 45% 29.95 in 10.0 mi NNE 6.9 mph - N/A   Clear
9:55 PM 64.4 °F - 41.0 °F 42% 29.95 in 10.0 mi Calm Calm - N/A   Clear
10:15 PM 62.6 °F - 39.2 °F 42% 29.96 in 10.0 mi ESE 4.6 mph - N/A   Clear
10:35 PM 62.6 °F - 39.2 °F 42% 29.96 in 10.0 mi SE 3.5 mph - N/A   Clear
10:55 PM 62.6 °F - 37.4 °F 39% 29.97 in 10.0 mi SSE 4.6 mph - N/A   Clear
11:15 PM 62.6 °F - 39.2 °F 42% 29.97 in 10.0 mi South 4.6 mph - N/A   Clear
11:35 PM 57.2 °F - 39.2 °F 51% 29.98 in 10.0 mi ESE 3.5 mph - N/A   Clear
11:55 PM 57.2 °F - 39.2 °F 51% 29.98 in 10.0 mi Calm Calm - N/A   Clear